Time;durP1;ratioP1;P1;durP2;ratioP2;P2;SDS_P1;SDS_P2;PMS_P1;PMS_P2;Temp;Humidity;BMP_temperature;BMP_pressure;BME280_temperature;BME280_humidity;BME280_pressure;Samples;Min_cycle;Max_cycle;Signal;HPM_P1;HPM_P2
2023/01/18 00:00:39;;;;;;;14.63;6.43;;;2.40;99.90;;;;;;5070943;28;20398;-53
2023/01/18 00:03:07;;;;;;;16.58;7.03;;;2.50;99.90;;;;;;5070148;28;20441;-52
2023/01/18 00:05:34;;;;;;;12.52;6.10;;;2.50;99.90;;;;;;5070618;28;20489;-54
2023/01/18 00:07:59;;;;;;;13.63;5.90;;;2.50;99.90;;;;;;5068449;28;20384;-53
2023/01/18 00:10:25;;;;;;;13.15;6.10;;;2.50;99.90;;;;;;5070484;28;20845;-53
2023/01/18 00:12:51;;;;;;;13.80;5.60;;;2.30;99.90;;;;;;5069537;28;20451;-53
2023/01/18 00:15:16;;;;;;;14.03;6.10;;;2.30;99.90;;;;;;5070788;28;20375;-53
2023/01/18 00:17:50;;;;;;;15.93;6.90;;;2.50;99.90;;;;;;5069980;28;20419;-53
2023/01/18 00:20:21;;;;;;;15.85;6.68;;;2.50;99.90;;;;;;5070074;28;20372;-53
2023/01/18 00:22:47;;;;;;;15.25;6.80;;;2.60;99.90;;;;;;5069522;28;20400;-55
2023/01/18 00:25:13;;;;;;;14.32;5.72;;;2.50;99.90;;;;;;5068942;28;20928;-53
2023/01/18 00:27:40;;;;;;;10.07;5.40;;;2.30;99.90;;;;;;5069645;28;20416;-51
2023/01/18 00:30:06;;;;;;;12.50;5.50;;;2.50;99.90;;;;;;5069367;28;20379;-52
2023/01/18 00:32:32;;;;;;;11.85;5.40;;;2.60;99.90;;;;;;5069741;28;20444;-52
2023/01/18 00:34:59;;;;;;;15.60;6.05;;;2.60;99.90;;;;;;5068036;28;20475;-52
2023/01/18 00:37:25;;;;;;;16.33;6.50;;;4.10;99.90;;;;;;5069995;28;20375;-53
2023/01/18 00:39:51;;;;;;;12.57;5.78;;;3.90;99.90;;;;;;5068757;28;20391;-53
2023/01/18 00:45:01;;;;;;;14.33;6.00;;;3.80;99.90;;;;;;5068924;28;20426;-53
2023/01/18 00:47:27;;;;;;;14.00;6.60;;;2.40;99.90;;;;;;5067749;28;20440;-52
2023/01/18 00:49:52;;;;;;;11.80;6.13;;;2.40;99.90;;;;;;5068695;28;20466;-52
2023/01/18 00:52:18;;;;;;;15.80;6.40;;;2.50;99.90;;;;;;5069460;28;20748;-52
2023/01/18 00:54:44;;;;;;;14.38;6.88;;;2.40;99.90;;;;;;5069440;28;20840;-52
2023/01/18 00:57:09;;;;;;;13.60;6.03;;;2.40;99.90;;;;;;5069169;28;20387;-53
2023/01/18 00:59:35;;;;;;;13.10;5.80;;;3.50;99.90;;;;;;5069331;28;20463;-52
2023/01/18 01:02:01;;;;;;;13.88;6.00;;;2.90;99.90;;;;;;5068767;28;20425;-52
2023/01/18 01:07:11;;;;;;;14.55;6.88;;;2.20;99.90;;;;;;5069279;28;20387;-52
2023/01/18 01:09:36;;;;;;;13.57;5.60;;;2.40;99.90;;;;;;5069309;28;20372;-52
2023/01/18 01:26:09;;;;;;;18.30;8.38;;;2.40;1.00;;;;;;5067950;28;20415;-53
2023/01/18 01:28:37;;;;;;;14.38;6.43;;;2.30;60.70;;;;;;5068683;28;20391;-52
2023/01/18 01:31:04;;;;;;;14.53;6.43;;;2.30;99.90;;;;;;5067898;28;20376;-52
2023/01/18 01:33:31;;;;;;;16.08;7.05;;;2.40;99.90;;;;;;5068678;28;20433;-52
2023/01/18 01:35:59;;;;;;;17.10;6.95;;;4.00;99.90;;;;;;5068379;28;20390;-52
2023/01/18 01:38:24;;;;;;;18.70;8.45;;;3.50;99.90;;;;;;5069045;28;20403;-52
2023/01/18 01:41:04;;;;;;;13.23;6.60;;;2.40;99.90;;;;;;5068934;28;20430;-52
2023/01/18 01:43:42;;;;;;;17.17;7.50;;;2.40;99.90;;;;;;5067621;28;20693;-52
2023/01/18 01:46:23;;;;;;;13.40;6.85;;;2.40;99.90;;;;;;5067679;28;20442;-52
2023/01/18 01:48:56;;;;;;;15.13;6.53;;;2.20;99.90;;;;;;5068139;28;20384;-53
2023/01/18 01:51:22;;;;;;;15.20;6.37;;;2.10;99.90;;;;;;5068859;28;20380;-53
2023/01/18 01:53:48;;;;;;;27.70;10.13;;;3.50;99.90;;;;;;5067587;28;20398;-51
2023/01/18 01:56:14;;;;;;;26.65;11.25;;;2.30;99.90;;;;;;5069098;28;20433;-51
2023/01/18 01:58:41;;;;;;;16.08;7.15;;;2.30;99.90;;;;;;5067529;28;20391;-51
2023/01/18 02:01:07;;;;;;;14.13;7.00;;;2.30;99.90;;;;;;5068781;28;20910;-52
2023/01/18 02:03:38;;;;;;;17.42;7.45;;;2.30;99.90;;;;;;5068839;28;20415;-52
2023/01/18 02:06:22;;;;;;;15.68;6.70;;;2.30;99.90;;;;;;5068320;28;20469;-53
2023/01/18 02:08:47;;;;;;;17.30;7.60;;;2.30;99.90;;;;;;5067932;28;20376;-53
2023/01/18 02:11:13;;;;;;;23.67;10.50;;;2.50;99.90;;;;;;5067869;28;20474;-53
2023/01/18 02:13:39;;;;;;;21.52;9.77;;;2.30;99.90;;;;;;5068667;28;20375;-53
2023/01/18 02:16:35;;;;;;;18.00;8.33;;;2.30;99.90;;;;;;5068400;28;20457;-53
2023/01/18 02:19:35;;;;;;;24.37;9.80;;;2.30;99.90;;;;;;5067902;28;20453;-54
2023/01/18 02:22:26;;;;;;;36.45;13.50;;;2.30;99.90;;;;;;5068073;28;20404;-53
2023/01/18 02:25:04;;;;;;;49.63;15.50;;;2.30;40.60;;;;;;5067472;28;20422;-53
2023/01/18 02:27:44;;;;;;;35.63;13.95;;;2.20;55.20;;;;;;5068613;28;20852;-53
2023/01/18 02:30:15;;;;;;;23.40;9.68;;;2.70;99.90;;;;;;5067833;28;20415;-52
2023/01/18 02:33:02;;;;;;;33.67;12.10;;;2.10;99.90;;;;;;5068632;28;20484;-53
2023/01/18 02:35:49;;;;;;;22.07;8.90;;;2.10;99.90;;;;;;5071210;28;20390;-53
2023/01/18 02:38:20;;;;;;;22.70;9.35;;;3.70;99.90;;;;;;5070789;28;20415;-53
2023/01/18 02:41:21;;;;;;;44.78;15.40;;;3.30;99.90;;;;;;5070319;28;20411;-52
2023/01/18 02:46:33;;;;;;;19.50;9.57;;;2.00;99.90;;;;;;5071605;28;20414;-53
2023/01/18 02:49:11;;;;;;;34.67;13.27;;;2.10;99.90;;;;;;5071645;28;20478;-53
2023/01/18 02:51:37;;;;;;;29.20;11.65;;;2.00;99.90;;;;;;5071514;28;20841;-53
2023/01/18 02:54:09;;;;;;;39.13;14.00;;;2.10;99.90;;;;;;5070751;28;20406;-53
2023/01/18 02:56:45;;;;;;;26.00;10.07;;;3.20;99.90;;;;;;5070279;28;20399;-53
2023/01/18 02:59:20;;;;;;;29.83;9.80;;;2.00;99.90;;;;;;5071390;28;20380;-54
2023/01/18 03:01:51;;;;;;;31.10;11.70;;;2.10;99.90;;;;;;5069686;28;20474;-52
2023/01/18 03:04:27;;;;;;;26.48;9.48;;;2.10;99.90;;;;;;5071791;28;20468;-52
2023/01/18 03:07:02;;;;;;;22.63;8.07;;;2.10;99.90;;;;;;5071064;28;20884;-53
2023/01/18 03:09:29;;;;;;;22.27;9.15;;;2.10;99.90;;;;;;5070940;28;20748;-53
2023/01/18 03:12:14;;;;;;;18.85;8.40;;;2.10;99.90;;;;;;5069276;28;20412;-53
2023/01/18 03:15:01;;;;;;;25.20;10.50;;;2.20;99.90;;;;;;5071118;28;20812;-53
2023/01/18 03:18:08;;;;;;;33.72;11.27;;;2.10;99.90;;;;;;5070813;28;20748;-52
2023/01/18 03:20:36;;;;;;;24.20;9.93;;;2.10;99.90;;;;;;5048729;28;20861;-54
2023/01/18 03:26:03;;;;;;;17.55;7.80;;;2.20;99.90;;;;;;5070096;28;20427;-52
2023/01/18 03:34:44;;;;;;;18.27;7.47;;;2.10;99.90;;;;;;5070966;28;20375;-52
2023/01/18 03:37:15;;;;;;;14.95;6.80;;;2.20;99.90;;;;;;5069817;28;20457;-52
2023/01/18 03:39:45;;;;;;;16.48;7.57;;;4.20;99.90;;;;;;5070813;28;20383;-53
2023/01/18 03:42:20;;;;;;;13.70;6.68;;;2.10;99.90;;;;;;5070801;28;20506;-53
2023/01/18 03:45:09;;;;;;;14.10;7.22;;;2.10;99.90;;;;;;5070517;28;20368;-53
2023/01/18 03:47:35;;;;;;;16.38;7.63;;;2.20;99.90;;;;;;5070319;28;20372;-53
2023/01/18 03:50:01;;;;;;;15.43;6.90;;;2.10;99.90;;;;;;5068617;28;20473;-53
2023/01/18 03:52:41;;;;;;;17.55;7.25;;;2.10;99.90;;;;;;5068710;28;20392;-53
2023/01/18 03:55:19;;;;;;;15.05;7.55;;;2.10;99.90;;;;;;5069758;28;20384;-53
2023/01/18 03:58:08;;;;;;;15.75;7.40;;;2.00;99.90;;;;;;5070209;28;20380;-53
2023/01/18 04:00:35;;;;;;;13.20;5.90;;;2.00;99.90;;;;;;5070339;28;20392;-53
2023/01/18 04:03:00;;;;;;;14.77;6.80;;;2.10;99.90;;;;;;5069658;28;20542;-53
2023/01/18 04:05:26;;;;;;;13.83;6.70;;;2.10;99.90;;;;;;5069139;28;20996;-53
2023/01/18 04:07:52;;;;;;;13.63;6.10;;;2.10;99.90;;;;;;5069486;28;20387;-53
2023/01/18 04:10:17;;;;;;;15.33;6.73;;;2.10;99.90;;;;;;5070414;28;20433;-53
2023/01/18 04:12:43;;;;;;;15.82;6.80;;;2.10;99.90;;;;;;5070296;28;20391;-53
2023/01/18 04:15:09;;;;;;;15.70;6.43;;;2.00;99.90;;;;;;5069730;28;20387;-53
2023/01/18 04:17:34;;;;;;;16.33;6.87;;;2.00;99.90;;;;;;5070316;28;20449;-53
2023/01/18 04:20:00;;;;;;;14.53;6.63;;;2.00;99.90;;;;;;5069810;28;20391;-53
2023/01/18 04:22:26;;;;;;;15.00;6.63;;;2.00;99.90;;;;;;5069659;28;20487;-53
2023/01/18 04:24:51;;;;;;;13.80;6.60;;;2.00;99.90;;;;;;5068876;28;20383;-53
2023/01/18 04:27:17;;;;;;;15.90;6.10;;;1.70;1.00;;;;;;5069918;28;20384;-53
2023/01/18 04:29:42;;;;;;;15.70;6.20;;;1.70;1.00;;;;;;5070226;28;20459;-53
2023/01/18 04:32:08;;;;;;;13.50;6.33;;;1.70;1.00;;;;;;5069184;28;20448;-53
2023/01/18 04:34:34;;;;;;;15.00;6.78;;;1.70;1.00;;;;;;5069699;28;20915;-53
2023/01/18 04:36:59;;;;;;;15.83;6.93;;;3.10;1.00;;;;;;5069257;28;20394;-53
2023/01/18 04:39:25;;;;;;;11.17;5.00;;;1.80;99.90;;;;;;5070453;28;20482;-53
2023/01/18 04:41:51;;;;;;;15.35;7.20;;;1.80;99.90;;;;;;5069016;28;20852;-53
2023/01/18 04:44:16;;;;;;;11.80;5.03;;;2.00;1.00;;;;;;5070112;28;20383;-53
2023/01/18 04:46:42;;;;;;;12.43;5.30;;;2.00;99.90;;;;;;5069744;28;20483;-53
2023/01/18 04:49:12;;;;;;;13.38;5.47;;;2.00;99.90;;;;;;5068574;28;20402;-53
2023/01/18 04:51:38;;;;;;;10.85;4.78;;;1.90;99.90;;;;;;5069451;28;20410;-53
2023/01/18 04:54:04;;;;;;;11.50;4.82;;;1.70;99.90;;;;;;5068605;28;20391;-53
2023/01/18 04:56:30;;;;;;;10.52;4.60;;;1.70;99.90;;;;;;5068379;28;20926;-53
2023/01/18 04:58:55;;;;;;;10.35;4.18;;;3.20;99.90;;;;;;5068485;28;20933;-53
2023/01/18 05:01:21;;;;;;;11.00;5.10;;;1.30;1.00;;;;;;5069774;28;20380;-53
2023/01/18 05:03:47;;;;;;;10.20;4.20;;;1.40;1.00;;;;;;5068483;28;20376;-53
2023/01/18 05:06:14;;;;;;;12.93;4.83;;;1.40;1.00;;;;;;5069522;28;20430;-53
2023/01/18 05:08:41;;;;;;;11.98;4.03;;;1.40;1.00;;;;;;5069182;28;20395;-53
2023/01/18 05:11:12;;;;;;;11.50;4.78;;;1.50;1.00;;;;;;5067877;28;20391;-53
2023/01/18 05:13:38;;;;;;;11.75;3.90;;;1.50;1.00;;;;;;5069322;28;20716;-53
2023/01/18 05:16:05;;;;;;;9.10;3.90;;;1.50;1.00;;;;;;5068613;28;20388;-53
2023/01/18 05:18:31;;;;;;;10.45;4.20;;;1.60;1.00;;;;;;5069108;28;20478;-53
2023/01/18 05:20:57;;;;;;;10.30;4.27;;;3.40;1.00;;;;;;5068609;28;20914;-53
2023/01/18 05:23:23;;;;;;;8.40;3.50;;;1.70;1.00;;;;;;5068077;28;20511;-53
2023/01/18 05:25:56;;;;;;;9.52;4.13;;;1.60;1.00;;;;;;5069152;28;20427;-53
2023/01/18 05:28:25;;;;;;;10.60;4.40;;;1.50;1.00;;;;;;5068530;28;20419;-53
2023/01/18 05:30:51;;;;;;;9.10;4.10;;;1.40;1.00;;;;;;5068531;28;20379;-53
2023/01/18 05:33:18;;;;;;;8.93;3.78;;;2.50;1.00;;;;;;5069342;28;20368;-53
2023/01/18 05:35:52;;;;;;;9.10;3.57;;;1.40;1.00;;;;;;5061187;28;20494;-53
2023/01/18 05:38:18;;;;;;;8.85;4.00;;;0.80;1.00;;;;;;5049005;28;20389;-53
2023/01/18 05:40:46;;;;;;;9.07;4.10;;;1.60;1.00;;;;;;5048887;28;20393;-56
2023/01/18 05:43:12;;;;;;;10.25;4.00;;;3.30;1.00;;;;;;5047257;28;20385;-53
2023/01/18 05:45:38;;;;;;;12.25;4.20;;;1.90;1.00;;;;;;5047410;28;20734;-53
2023/01/18 05:48:04;;;;;;;9.00;3.45;;;1.70;1.00;;;;;;5057574;28;20730;-52
2023/01/18 05:50:30;;;;;;;9.02;3.72;;;1.70;1.00;;;;;;5065875;28;20423;-52
2023/01/18 05:52:59;;;;;;;10.40;3.63;;;2.50;1.00;;;;;;5053988;28;20408;-52
2023/01/18 05:55:25;;;;;;;10.82;4.40;;;1.70;1.00;;;;;;5064280;28;20390;-52
2023/01/18 05:57:51;;;;;;;8.90;4.05;;;1.80;1.00;;;;;;5069264;28;20475;-52
2023/01/18 06:00:17;;;;;;;11.45;5.00;;;1.80;99.90;;;;;;5069503;28;20471;-52
2023/01/18 06:02:42;;;;;;;12.85;4.80;;;1.70;1.00;;;;;;5077806;28;20400;-52
2023/01/18 06:05:08;;;;;;;10.47;4.77;;;1.70;1.00;;;;;;5087603;28;20418;-52
2023/01/18 06:07:34;;;;;;;8.52;3.42;;;1.60;1.00;;;;;;5081008;28;20384;-52
2023/01/18 06:09:59;;;;;;;12.13;5.10;;;1.40;1.00;;;;;;5080942;28;20388;-52
2023/01/18 06:12:25;;;;;;;10.50;4.27;;;2.60;1.00;;;;;;5077979;28;21286;-52
2023/01/18 06:14:51;;;;;;;10.18;4.20;;;1.50;1.00;;;;;;5088460;28;20423;-53
2023/01/18 06:17:16;;;;;;;8.77;4.10;;;1.50;1.00;;;;;;5075749;28;20811;-52
2023/01/18 06:19:42;;;;;;;9.47;3.83;;;1.50;1.00;;;;;;5082092;28;20380;-52
2023/01/18 06:22:07;;;;;;;9.88;4.10;;;3.70;1.00;;;;;;5081918;28;20398;-52
2023/01/18 06:24:33;;;;;;;14.53;5.73;;;1.40;1.00;;;;;;5076820;28;20895;-52
2023/01/18 06:26:59;;;;;;;19.17;8.33;;;1.50;1.00;;;;;;5088349;28;20441;-52
2023/01/18 06:29:25;;;;;;;14.13;5.97;;;1.50;1.00;;;;;;5078234;28;20412;-53
2023/01/18 06:31:51;;;;;;;16.08;6.45;;;1.50;1.00;;;;;;5074587;28;20887;-52
2023/01/18 06:34:16;;;;;;;14.55;6.20;;;1.50;1.00;;;;;;5085150;28;20382;-52
2023/01/18 06:36:44;;;;;;;16.88;7.57;;;1.90;1.00;;;;;;5074567;28;20471;-52
2023/01/18 06:39:09;;;;;;;21.40;7.40;;;1.40;1.00;;;;;;5073120;28;20380;-52
2023/01/18 06:41:35;;;;;;;15.67;6.77;;;2.80;1.00;;;;;;5088307;28;20378;-52
2023/01/18 06:44:00;;;;;;;16.40;6.87;;;1.40;1.00;;;;;;5066276;28;20399;-52
2023/01/18 06:46:27;;;;;;;12.27;5.40;;;1.40;1.00;;;;;;5071491;28;20407;-52
2023/01/18 06:48:53;;;;;;;12.48;5.53;;;1.40;1.00;;;;;;5073672;28;20471;-52
2023/01/18 06:51:19;;;;;;;15.20;5.80;;;2.50;1.00;;;;;;5071831;28;20470;-53
2023/01/18 06:53:44;;;;;;;11.98;5.32;;;2.80;1.00;;;;;;5071585;28;20492;-52
2023/01/18 06:56:11;;;;;;;16.13;6.20;;;1.30;1.00;;;;;;5070695;28;21011;-52
2023/01/18 06:58:37;;;;;;;19.48;6.50;;;1.20;1.00;;;;;;5076668;28;20398;-52
2023/01/18 07:01:03;;;;;;;18.33;7.30;;;1.20;1.00;;;;;;5070464;28;20733;-52
2023/01/18 07:03:29;;;;;;;18.90;8.02;;;1.20;1.00;;;;;;5068850;28;20384;-52
2023/01/18 07:05:57;;;;;;;14.43;6.05;;;1.10;1.00;;;;;;5064790;28;20415;-52
2023/01/18 07:08:23;;;;;;;17.42;8.23;;;1.10;1.00;;;;;;5071518;28;20436;-52
2023/01/18 07:10:51;;;;;;;15.10;6.93;;;1.20;1.00;;;;;;5070978;28;20796;-52
2023/01/18 07:13:17;;;;;;;18.03;8.10;;;2.50;1.00;;;;;;5071515;28;20723;-52
2023/01/18 07:15:43;;;;;;;14.32;7.03;;;1.10;1.00;;;;;;5071669;28;20384;-52
2023/01/18 07:18:08;;;;;;;21.37;8.73;;;1.00;1.00;;;;;;5071225;28;20411;-52
2023/01/18 07:20:34;;;;;;;18.85;8.45;;;1.10;1.00;;;;;;5070216;28;20863;-52
2023/01/18 07:23:01;;;;;;;16.08;7.15;;;1.10;1.00;;;;;;5070149;28;20414;-52
2023/01/18 07:25:28;;;;;;;20.30;10.00;;;0.70;1.00;;;;;;5071153;28;20419;-52
2023/01/18 07:27:56;;;;;;;18.00;8.32;;;0.70;1.00;;;;;;5070703;28;20460;-52
2023/01/18 07:30:22;;;;;;;15.80;7.50;;;2.30;1.00;;;;;;5070240;28;20441;-52
2023/01/18 07:32:49;;;;;;;22.45;10.57;;;0.70;1.00;;;;;;5071270;28;20422;-52
2023/01/18 07:35:21;;;;;;;13.40;7.23;;;0.70;1.00;;;;;;5071567;28;20384;-52
2023/01/18 07:37:55;;;;;;;16.85;8.10;;;0.70;1.00;;;;;;5070057;28;20392;-52
2023/01/18 07:40:21;;;;;;;15.67;8.07;;;0.60;1.00;;;;;;5070861;28;20426;-52
2023/01/18 07:42:48;;;;;;;18.03;8.53;;;0.70;1.00;;;;;;5070972;28;20425;-52
2023/01/18 07:45:13;;;;;;;19.63;10.10;;;0.70;1.00;;;;;;5070563;28;20877;-52
2023/01/18 07:47:40;;;;;;;19.38;8.65;;;0.70;1.00;;;;;;5070788;28;20383;-52
2023/01/18 07:50:06;;;;;;;18.63;9.00;;;0.70;1.00;;;;;;5070408;28;20473;-52
2023/01/18 07:52:32;;;;;;;16.92;8.27;;;0.70;1.00;;;;;;5070778;28;20407;-52
2023/01/18 07:54:57;;;;;;;21.35;9.90;;;0.70;1.00;;;;;;5070613;28;20391;-53
2023/01/18 07:57:24;;;;;;;17.00;8.70;;;0.70;1.00;;;;;;5070809;28;20387;-52
2023/01/18 07:59:50;;;;;;;17.20;8.43;;;0.70;1.00;;;;;;5070506;28;20383;-53
2023/01/18 08:02:16;;;;;;;17.67;9.38;;;0.60;1.00;;;;;;5069053;28;20401;-52
2023/01/18 08:04:42;;;;;;;18.25;8.63;;;0.70;1.00;;;;;;5071195;28;20388;-52
2023/01/18 08:07:07;;;;;;;16.98;8.73;;;0.70;1.00;;;;;;5070388;28;20740;-52
2023/01/18 08:09:33;;;;;;;15.00;8.23;;;0.70;1.00;;;;;;5070653;28;20382;-52
2023/01/18 08:12:00;;;;;;;18.07;9.43;;;0.70;1.00;;;;;;5069539;28;20710;-52
2023/01/18 08:14:26;;;;;;;16.48;7.97;;;0.70;1.00;;;;;;5069748;28;20383;-52
2023/01/18 08:16:51;;;;;;;17.08;7.72;;;0.70;1.00;;;;;;5069652;28;20914;-53
2023/01/18 08:19:17;;;;;;;19.83;8.60;;;3.00;1.00;;;;;;5069132;28;20525;-52
2023/01/18 08:21:43;;;;;;;19.33;8.50;;;0.70;1.00;;;;;;5069122;28;20433;-52
2023/01/18 08:24:09;;;;;;;19.70;8.40;;;0.80;1.00;;;;;;5068336;28;20603;-53
2023/01/18 08:26:34;;;;;;;17.33;8.27;;;0.90;1.00;;;;;;5069175;28;20768;-52
2023/01/18 08:29:00;;;;;;;17.77;8.80;;;0.90;1.00;;;;;;5068841;28;20391;-52
2023/01/18 08:31:26;;;;;;;21.67;8.70;;;0.90;1.00;;;;;;5069526;28;20403;-52
2023/01/18 08:33:51;;;;;;;20.50;9.10;;;0.90;1.00;;;;;;5068660;28;20411;-53
2023/01/18 08:36:20;;;;;;;16.15;8.60;;;1.10;1.00;;;;;;5069171;28;20375;-52
2023/01/18 08:38:48;;;;;;;14.40;6.82;;;1.00;1.00;;;;;;5069217;28;20453;-52
2023/01/18 08:41:13;;;;;;;17.73;8.55;;;1.10;1.00;;;;;;5068602;28;20485;-53
2023/01/18 08:43:39;;;;;;;17.55;8.38;;;1.10;1.00;;;;;;5069330;28;20860;-52
2023/01/18 08:46:05;;;;;;;14.05;7.00;;;1.10;1.00;;;;;;5068485;28;20880;-52
2023/01/18 08:48:31;;;;;;;16.00;7.90;;;1.00;1.00;;;;;;5067273;28;20395;-52
2023/01/18 08:51:03;;;;;;;14.68;6.70;;;1.10;1.00;;;;;;5068654;28;20376;-53
2023/01/18 08:53:30;;;;;;;18.25;7.85;;;1.00;1.00;;;;;;5068559;28;20852;-53
2023/01/18 08:55:56;;;;;;;15.00;7.55;;;1.20;1.00;;;;;;5068573;28;20406;-53
2023/01/18 08:58:21;;;;;;;19.40;8.32;;;1.10;1.00;;;;;;5068900;28;20911;-52
2023/01/18 09:00:49;;;;;;;15.70;7.30;;;1.10;1.00;;;;;;5068646;28;20384;-52
2023/01/18 09:03:21;;;;;;;11.52;5.75;;;1.90;1.00;;;;;;5068546;28;20387;-52
2023/01/18 09:05:48;;;;;;;9.65;4.80;;;1.00;1.00;;;;;;5068587;28;20407;-53
2023/01/18 09:08:13;;;;;;;18.17;7.40;;;1.00;1.00;;;;;;5067638;28;20400;-52
2023/01/18 09:10:39;;;;;;;15.55;7.10;;;1.10;1.00;;;;;;5068896;28;20410;-52
2023/01/18 09:13:05;;;;;;;13.47;7.00;;;1.20;1.00;;;;;;5068122;28;20471;-52
2023/01/18 09:15:31;;;;;;;13.40;6.70;;;1.10;1.00;;;;;;5068479;28;20384;-52
2023/01/18 09:17:57;;;;;;;17.00;7.90;;;1.10;1.00;;;;;;5068357;28;20383;-53
2023/01/18 09:20:24;;;;;;;16.30;7.10;;;1.30;1.00;;;;;;5069031;28;20376;-52
2023/01/18 09:22:50;;;;;;;13.80;6.18;;;1.30;1.00;;;;;;5068356;28;20447;-52
2023/01/18 09:25:17;;;;;;;18.55;7.80;;;2.10;1.00;;;;;;5068144;28;20444;-52
2023/01/18 09:27:43;;;;;;;14.30;6.03;;;1.40;1.00;;;;;;5068739;28;20465;-52
2023/01/18 09:30:10;;;;;;;9.63;5.30;;;1.30;99.90;;;;;;5068513;28;20403;-53
2023/01/18 09:32:35;;;;;;;11.63;5.53;;;1.20;1.00;;;;;;5068993;28;20380;-52
2023/01/18 09:35:01;;;;;;;18.40;6.30;;;1.10;1.00;;;;;;5066795;28;20383;-53
2023/01/18 09:37:27;;;;;;;17.50;7.47;;;1.20;1.00;;;;;;5068080;28;20414;-52
2023/01/18 09:39:52;;;;;;;11.07;5.80;;;1.20;1.00;;;;;;5067631;28;20849;-53
2023/01/18 09:42:26;;;;;;;14.90;6.57;;;1.20;1.00;;;;;;5069033;28;20457;-53
2023/01/18 09:44:57;;;;;;;14.23;6.73;;;1.20;1.00;;;;;;5068011;28;20368;-53
2023/01/18 09:47:26;;;;;;;11.45;5.15;;;1.10;1.00;;;;;;5069007;28;20384;-52
2023/01/18 09:50:01;;;;;;;14.27;5.80;;;1.10;1.00;;;;;;5068440;28;20499;-53
2023/01/18 09:52:39;;;;;;;16.15;7.00;;;1.10;1.00;;;;;;5068825;28;20399;-53
2023/01/18 09:55:21;;;;;;;12.98;6.43;;;1.30;1.00;;;;;;5068565;28;20403;-53
2023/01/18 09:58:02;;;;;;;12.90;4.93;;;1.30;1.00;;;;;;5069250;28;20880;-53
2023/01/18 10:00:31;;;;;;;11.68;5.60;;;1.20;1.00;;;;;;5069256;28;20364;-52
2023/01/18 10:03:14;;;;;;;14.07;5.93;;;1.40;1.00;;;;;;5068244;28;20380;-54
2023/01/18 10:06:07;;;;;;;11.75;6.00;;;1.50;1.00;;;;;;5069135;28;20431;-52
2023/01/18 10:08:41;;;;;;;12.30;6.10;;;1.40;1.00;;;;;;5069306;28;20382;-53
2023/01/18 10:11:18;;;;;;;15.32;6.38;;;1.40;1.00;;;;;;5068185;28;20376;-52
2023/01/18 10:13:58;;;;;;;11.80;5.97;;;1.40;1.00;;;;;;5068393;28;20875;-52
2023/01/18 10:16:25;;;;;;;13.52;5.93;;;1.30;1.00;;;;;;5068948;28;20399;-52
2023/01/18 10:18:54;;;;;;;14.90;6.03;;;1.40;1.00;;;;;;5068992;28;20368;-52
2023/01/18 10:21:42;;;;;;;14.43;7.05;;;1.40;1.00;;;;;;5068028;28;20391;-55
2023/01/18 10:24:33;;;;;;;12.82;6.30;;;1.50;1.00;;;;;;5068180;28;20889;-53
2023/01/18 10:27:43;;;;;;;15.25;6.78;;;1.50;99.90;;;;;;5068811;28;20736;-53
2023/01/18 10:30:44;;;;;;;14.30;6.80;;;1.70;99.90;;;;;;5066892;28;20737;-52
2023/01/18 10:33:26;;;;;;;13.27;5.28;;;1.70;99.90;;;;;;5059662;28;20782;-53
2023/01/18 10:35:57;;;;;;;14.88;5.70;;;1.70;99.90;;;;;;5069097;28;20471;-53
2023/01/18 10:38:27;;;;;;;13.82;5.32;;;1.70;99.90;;;;;;5067333;28;20441;-53
2023/01/18 10:40:58;;;;;;;12.07;5.13;;;3.80;99.90;;;;;;5068336;28;20448;-52
2023/01/18 10:43:26;;;;;;;12.73;5.50;;;1.70;99.90;;;;;;5068589;28;20745;-52
2023/01/18 10:45:53;;;;;;;12.88;5.03;;;1.60;99.90;;;;;;5068609;28;20404;-52
2023/01/18 10:48:24;;;;;;;13.57;5.87;;;1.70;99.90;;;;;;5068430;28;20391;-52
2023/01/18 10:50:54;;;;;;;14.07;5.72;;;1.60;99.90;;;;;;5068358;28;20872;-52
2023/01/18 10:53:22;;;;;;;11.90;5.73;;;1.80;99.90;;;;;;5067825;28;20938;-52
2023/01/18 10:56:18;;;;;;;15.55;5.50;;;1.90;99.90;;;;;;5070064;28;20900;-52
2023/01/18 10:58:49;;;;;;;13.47;5.57;;;2.20;57.60;;;;;;5071507;28;20368;-52
2023/01/18 11:01:28;;;;;;;11.63;5.03;;;2.30;1.00;;;;;;5071478;28;20828;-52
2023/01/18 11:04:04;;;;;;;11.43;5.47;;;2.30;1.00;;;;;;5071776;28;20384;-52
2023/01/18 11:06:42;;;;;;;14.23;5.53;;;2.50;1.00;;;;;;5072019;28;20493;-52
2023/01/18 11:09:41;;;;;;;16.63;5.55;;;4.60;99.90;;;;;;5071726;28;20388;-52
2023/01/18 11:12:37;;;;;;;14.40;5.00;;;2.40;1.00;;;;;;5069921;28;20388;-52
2023/01/18 11:15:12;;;;;;;10.50;4.80;;;2.50;1.00;;;;;;5069591;28;20474;-52
2023/01/18 11:17:42;;;;;;;11.50;5.20;;;2.70;99.90;;;;;;5071664;28;20880;-52
2023/01/18 11:20:20;;;;;;;13.27;5.47;;;3.30;1.00;;;;;;5071401;28;20391;-52
2023/01/18 11:23:00;;;;;;;11.73;4.40;;;2.90;99.90;;;;;;5071659;28;20486;-52
2023/01/18 11:25:57;;;;;;;10.20;4.10;;;2.70;1.00;;;;;;5071177;28;20768;-52
2023/01/18 11:28:46;;;;;;;12.48;4.85;;;2.20;1.00;;;;;;5071117;28;20404;-52
2023/01/18 11:31:20;;;;;;;15.18;4.55;;;2.10;1.00;;;;;;5070690;28;20376;-52
2023/01/18 11:33:54;;;;;;;9.60;4.43;;;2.90;1.00;;;;;;5070812;28;20371;-52
2023/01/18 11:36:36;;;;;;;12.82;5.03;;;2.40;99.90;;;;;;5069292;28;20416;-52
2023/01/18 11:39:20;;;;;;;12.68;5.60;;;2.40;1.00;;;;;;5069173;28;20399;-52
2023/01/18 11:41:47;;;;;;;11.80;5.70;;;2.30;1.00;;;;;;5070956;28;20384;-52
2023/01/18 11:44:22;;;;;;;10.25;3.90;;;2.40;1.00;;;;;;5069560;28;20916;-53
2023/01/18 11:46:55;;;;;;;10.95;4.55;;;2.10;1.00;;;;;;5070518;28;20521;-53
2023/01/18 11:49:35;;;;;;;10.48;4.82;;;2.10;99.90;;;;;;5069967;28;20387;-52
2023/01/18 11:52:07;;;;;;;14.38;5.22;;;2.00;99.90;;;;;;5069125;28;20419;-53
2023/01/18 11:54:54;;;;;;;14.82;5.68;;;2.20;89.70;;;;;;5070204;28;20372;-52
2023/01/18 11:57:19;;;;;;;13.40;5.60;;;2.20;1.00;;;;;;5068507;28;20403;-52
2023/01/18 11:59:46;;;;;;;14.13;5.23;;;2.30;1.00;;;;;;5070308;28;20368;-52
2023/01/18 12:02:31;;;;;;;9.00;4.10;;;4.60;99.90;;;;;;5068069;28;20474;-52
2023/01/18 12:05:27;;;;;;;11.55;4.70;;;2.40;1.00;;;;;;5069158;28;20439;-52
2023/01/18 12:08:11;;;;;;;11.50;4.57;;;2.30;1.00;;;;;;5069081;28;20483;-52
2023/01/18 12:11:14;;;;;;;9.88;4.85;;;2.10;1.00;;;;;;5070176;28;20384;-52
2023/01/18 12:13:58;;;;;;;15.20;4.55;;;2.10;1.00;;;;;;5067908;28;20530;-52
2023/01/18 12:16:40;;;;;;;13.20;5.40;;;2.20;1.10;;;;;;5068237;28;20403;-52
2023/01/18 12:19:27;;;;;;;11.98;5.88;;;2.30;99.90;;;;;;5067419;28;20422;-52
2023/01/18 12:22:21;;;;;;;15.38;6.90;;;2.40;78.70;;;;;;5069424;28;20794;-52
2023/01/18 12:25:17;;;;;;;14.07;5.10;;;2.50;99.90;;;;;;5069500;28;20407;-53
2023/01/18 12:27:45;;;;;;;10.00;4.10;;;2.40;99.90;;;;;;5064814;28;20483;-52
2023/01/18 12:30:44;;;;;;;11.38;4.88;;;2.40;1.00;;;;;;5067059;28;20396;-53
2023/01/18 12:33:33;;;;;;;12.25;5.97;;;2.50;99.90;;;;;;5067782;28;20394;-52
2023/01/18 12:36:44;;;;;;;12.48;4.75;;;2.60;1.00;;;;;;5068874;28;20376;-52
2023/01/18 12:39:50;;;;;;;8.50;3.83;;;2.50;1.00;;;;;;5066061;28;20388;-52
2023/01/18 12:42:43;;;;;;;11.45;3.67;;;4.40;1.00;;;;;;5068593;28;20396;-52
2023/01/18 12:45:36;;;;;;;9.88;4.70;;;2.20;1.00;;;;;;5067281;28;20470;-52
2023/01/18 12:48:23;;;;;;;12.18;5.32;;;2.30;1.00;;;;;;5068496;28;20406;-52
2023/01/18 12:50:50;;;;;;;10.70;4.95;;;2.40;99.90;;;;;;5069608;28;20487;-52
2023/01/18 12:53:37;;;;;;;10.23;4.80;;;2.60;99.90;;;;;;5068226;28;20391;-52
2023/01/18 12:56:22;;;;;;;11.05;4.90;;;2.90;99.90;;;;;;5068405;28;20404;-52
2023/01/18 12:58:54;;;;;;;12.03;4.30;;;2.80;1.00;;;;;;5064772;28;20396;-52
2023/01/18 13:01:23;;;;;;;10.65;4.57;;;3.40;43.00;;;;;;5068748;28;20384;-52
2023/01/18 13:03:52;;;;;;;13.60;4.23;;;2.70;1.00;;;;;;5068636;28;20487;-52
2023/01/18 13:06:19;;;;;;;8.93;3.92;;;2.50;1.00;;;;;;5068032;28;20494;-52
2023/01/18 13:08:53;;;;;;;9.63;3.83;;;2.10;1.00;;;;;;5069016;28;20391;-52
2023/01/18 13:11:40;;;;;;;11.93;4.18;;;2.10;99.90;;;;;;5067304;28;20380;-52
2023/01/18 13:14:24;;;;;;;13.55;4.50;;;2.10;99.90;;;;;;5067384;28;20893;-53
2023/01/18 13:17:11;;;;;;;11.40;4.50;;;2.10;1.00;;;;;;5067789;28;20762;-52
2023/01/18 13:19:45;;;;;;;12.57;4.72;;;2.10;1.00;;;;;;5066494;28;20431;-53
2023/01/18 13:22:33;;;;;;;10.73;5.30;;;2.10;99.90;;;;;;5067666;28;20387;-53
2023/01/18 13:25:33;;;;;;;10.98;5.32;;;2.10;1.00;;;;;;5066921;28;20486;-53
2023/01/18 13:28:12;;;;;;;14.40;5.50;;;2.40;1.00;;;;;;5068154;28;20392;-53
2023/01/18 13:31:05;;;;;;;16.70;6.15;;;2.60;99.90;;;;;;5069230;28;20549;-53
2023/01/18 13:33:38;;;;;;;20.77;6.95;;;2.70;1.00;;;;;;5067992;28;20400;-52
2023/01/18 13:36:13;;;;;;;15.90;5.00;;;4.10;1.00;;;;;;5067632;28;20406;-52
2023/01/18 13:38:50;;;;;;;13.27;5.35;;;2.50;1.00;;;;;;5067452;28;20455;-52
2023/01/18 13:41:22;;;;;;;12.63;4.93;;;2.50;1.00;;;;;;5066578;28;21170;-53
2023/01/18 13:43:52;;;;;;;20.10;7.60;;;2.70;1.80;;;;;;5067784;28;20376;-53
2023/01/18 13:46:22;;;;;;;13.73;5.75;;;2.80;99.90;;;;;;5067099;28;20464;-53
2023/01/18 13:48:57;;;;;;;19.90;7.45;;;2.70;99.90;;;;;;5069481;28;20721;-52